sensor_id;sensor_type;location;lat;lon;timestamp;temperature;humidity
43185;DHT22;28803;52.308;19.096;2023-04-06T00:01:42;-3.10;1.00
43185;DHT22;28803;52.308;19.096;2023-04-06T00:04:09;-3.10;1.00
43185;DHT22;28803;52.308;19.096;2023-04-06T00:06:37;-2.90;1.00
43185;DHT22;28803;52.308;19.096;2023-04-06T00:09:04;-3.00;1.00
43185;DHT22;28803;52.308;19.096;2023-04-06T00:11:32;-2.90;1.00
43185;DHT22;28803;52.308;19.096;2023-04-06T00:13:59;-3.00;1.00
43185;DHT22;28803;52.308;19.096;2023-04-06T00:16:27;-2.90;1.00
43185;DHT22;28803;52.308;19.096;2023-04-06T00:18:56;-2.90;1.00
43185;DHT22;28803;52.308;19.096;2023-04-06T00:21:24;-2.80;1.00
43185;DHT22;28803;52.308;19.096;2023-04-06T00:23:52;-2.90;1.00
43185;DHT22;28803;52.308;19.096;2023-04-06T00:26:19;-2.90;1.00
43185;DHT22;28803;52.308;19.096;2023-04-06T00:28:46;-3.00;1.00
43185;DHT22;28803;52.308;19.096;2023-04-06T00:31:14;-3.10;1.00
43185;DHT22;28803;52.308;19.096;2023-04-06T00:33:41;-3.10;1.00
43185;DHT22;28803;52.308;19.096;2023-04-06T00:36:08;-3.10;1.00
43185;DHT22;28803;52.308;19.096;2023-04-06T00:38:35;-3.10;1.00
43185;DHT22;28803;52.308;19.096;2023-04-06T00:41:03;-3.20;1.00
43185;DHT22;28803;52.308;19.096;2023-04-06T00:43:32;-3.20;1.00
43185;DHT22;28803;52.308;19.096;2023-04-06T00:45:59;-3.30;1.00
43185;DHT22;28803;52.308;19.096;2023-04-06T00:48:26;-3.20;1.00
43185;DHT22;28803;52.308;19.096;2023-04-06T00:50:54;-3.10;1.00
43185;DHT22;28803;52.308;19.096;2023-04-06T00:53:21;-3.30;1.00
43185;DHT22;28803;52.308;19.096;2023-04-06T00:55:48;-3.20;1.00
43185;DHT22;28803;52.308;19.096;2023-04-06T00:58:15;-3.30;1.00
43185;DHT22;28803;52.308;19.096;2023-04-06T01:00:43;-3.30;1.00
43185;DHT22;28803;52.308;19.096;2023-04-06T01:03:10;-3.40;1.00
43185;DHT22;28803;52.308;19.096;2023-04-06T01:05:37;-3.40;1.00
43185;DHT22;28803;52.308;19.096;2023-04-06T01:08:07;-3.40;1.00
43185;DHT22;28803;52.308;19.096;2023-04-06T01:10:34;-3.40;1.00
43185;DHT22;28803;52.308;19.096;2023-04-06T01:13:02;-3.40;1.00
43185;DHT22;28803;52.308;19.096;2023-04-06T01:15:30;-3.00;1.00
43185;DHT22;28803;52.308;19.096;2023-04-06T01:17:57;-3.40;1.00
43185;DHT22;28803;52.308;19.096;2023-04-06T01:20:25;-3.30;1.00
43185;DHT22;28803;52.308;19.096;2023-04-06T01:22:52;-3.20;1.00
43185;DHT22;28803;52.308;19.096;2023-04-06T01:25:19;-3.20;1.00
43185;DHT22;28803;52.308;19.096;2023-04-06T01:27:46;-3.30;1.00
43185;DHT22;28803;52.308;19.096;2023-04-06T01:30:13;-3.40;1.00
43185;DHT22;28803;52.308;19.096;2023-04-06T01:32:41;-3.40;1.00
43185;DHT22;28803;52.308;19.096;2023-04-06T01:35:09;-3.40;1.00
43185;DHT22;28803;52.308;19.096;2023-04-06T01:37:36;-3.40;1.00
43185;DHT22;28803;52.308;19.096;2023-04-06T01:40:04;-3.40;1.00
43185;DHT22;28803;52.308;19.096;2023-04-06T01:42:31;-3.40;1.00
43185;DHT22;28803;52.308;19.096;2023-04-06T01:44:59;-3.10;1.00
43185;DHT22;28803;52.308;19.096;2023-04-06T01:47:26;-3.40;1.00
43185;DHT22;28803;52.308;19.096;2023-04-06T01:49:54;-3.50;1.00
43185;DHT22;28803;52.308;19.096;2023-04-06T01:52:21;-3.50;1.00
43185;DHT22;28803;52.308;19.096;2023-04-06T01:54:48;-3.50;1.00
43185;DHT22;28803;52.308;19.096;2023-04-06T01:57:15;-3.40;1.00
43185;DHT22;28803;52.308;19.096;2023-04-06T01:59:42;-3.40;1.00
43185;DHT22;28803;52.308;19.096;2023-04-06T02:02:10;-3.40;1.00
43185;DHT22;28803;52.308;19.096;2023-04-06T02:04:37;-3.40;1.00
43185;DHT22;28803;52.308;19.096;2023-04-06T02:07:04;-3.40;1.00
43185;DHT22;28803;52.308;19.096;2023-04-06T02:09:31;-3.40;1.00
43185;DHT22;28803;52.308;19.096;2023-04-06T02:11:58;-3.40;1.00
43185;DHT22;28803;52.308;19.096;2023-04-06T02:14:26;-3.40;1.00
43185;DHT22;28803;52.308;19.096;2023-04-06T02:16:53;-3.30;1.00
43185;DHT22;28803;52.308;19.096;2023-04-06T02:19:21;-3.30;1.00
43185;DHT22;28803;52.308;19.096;2023-04-06T02:21:49;-3.40;1.00
43185;DHT22;28803;52.308;19.096;2023-04-06T02:24:16;-3.40;1.00
43185;DHT22;28803;52.308;19.096;2023-04-06T02:26:43;-3.40;1.00
43185;DHT22;28803;52.308;19.096;2023-04-06T02:29:11;-3.40;1.00
43185;DHT22;28803;52.308;19.096;2023-04-06T02:31:38;-3.40;1.00
43185;DHT22;28803;52.308;19.096;2023-04-06T02:34:05;-3.50;1.00
43185;DHT22;28803;52.308;19.096;2023-04-06T02:36:33;-3.50;1.00
43185;DHT22;28803;52.308;19.096;2023-04-06T02:39:01;-3.50;1.00
43185;DHT22;28803;52.308;19.096;2023-04-06T02:41:28;-3.50;1.00
43185;DHT22;28803;52.308;19.096;2023-04-06T02:43:55;-3.50;1.00
43185;DHT22;28803;52.308;19.096;2023-04-06T02:46:23;-3.50;1.00
43185;DHT22;28803;52.308;19.096;2023-04-06T02:48:51;-3.50;1.00
43185;DHT22;28803;52.308;19.096;2023-04-06T02:51:18;-3.50;1.00
43185;DHT22;28803;52.308;19.096;2023-04-06T02:53:45;-3.50;1.00
43185;DHT22;28803;52.308;19.096;2023-04-06T02:56:13;-3.50;1.00
43185;DHT22;28803;52.308;19.096;2023-04-06T02:58:40;-3.50;1.00
43185;DHT22;28803;52.308;19.096;2023-04-06T03:01:07;-3.00;1.00
43185;DHT22;28803;52.308;19.096;2023-04-06T03:03:35;-3.60;1.00
43185;DHT22;28803;52.308;19.096;2023-04-06T03:06:02;-3.60;1.00
43185;DHT22;28803;52.308;19.096;2023-04-06T03:08:30;-3.70;1.00
43185;DHT22;28803;52.308;19.096;2023-04-06T03:10:57;-3.70;1.00
43185;DHT22;28803;52.308;19.096;2023-04-06T03:13:24;-3.80;1.00
43185;DHT22;28803;52.308;19.096;2023-04-06T03:15:51;-3.80;1.00
43185;DHT22;28803;52.308;19.096;2023-04-06T03:18:22;-3.80;1.00
43185;DHT22;28803;52.308;19.096;2023-04-06T03:20:50;-3.70;1.00
43185;DHT22;28803;52.308;19.096;2023-04-06T03:23:18;-3.70;1.00
43185;DHT22;28803;52.308;19.096;2023-04-06T03:25:47;-3.80;1.00
43185;DHT22;28803;52.308;19.096;2023-04-06T03:28:14;-3.80;1.00
43185;DHT22;28803;52.308;19.096;2023-04-06T03:30:42;-3.70;1.00
43185;DHT22;28803;52.308;19.096;2023-04-06T03:33:10;-3.70;1.00
43185;DHT22;28803;52.308;19.096;2023-04-06T03:35:37;-3.80;1.00
43185;DHT22;28803;52.308;19.096;2023-04-06T03:38:04;-3.90;1.00
43185;DHT22;28803;52.308;19.096;2023-04-06T03:40:32;-3.90;1.00
43185;DHT22;28803;52.308;19.096;2023-04-06T03:42:59;-3.90;1.00
43185;DHT22;28803;52.308;19.096;2023-04-06T03:45:26;-4.00;1.00
43185;DHT22;28803;52.308;19.096;2023-04-06T03:47:53;-3.90;1.00
43185;DHT22;28803;52.308;19.096;2023-04-06T03:50:21;-3.90;1.00
43185;DHT22;28803;52.308;19.096;2023-04-06T03:52:48;-3.80;1.00
43185;DHT22;28803;52.308;19.096;2023-04-06T03:55:15;-3.80;1.00
43185;DHT22;28803;52.308;19.096;2023-04-06T03:57:43;-3.70;1.00
43185;DHT22;28803;52.308;19.096;2023-04-06T04:00:10;-3.70;1.00
43185;DHT22;28803;52.308;19.096;2023-04-06T04:02:38;-3.60;1.00
43185;DHT22;28803;52.308;19.096;2023-04-06T04:05:05;-3.50;1.00
43185;DHT22;28803;52.308;19.096;2023-04-06T04:07:33;-3.40;1.00
43185;DHT22;28803;52.308;19.096;2023-04-06T04:10:00;-3.30;1.00
43185;DHT22;28803;52.308;19.096;2023-04-06T04:12:27;-3.10;1.00
43185;DHT22;28803;52.308;19.096;2023-04-06T04:14:54;-2.90;1.00
43185;DHT22;28803;52.308;19.096;2023-04-06T04:17:21;-2.80;1.00
43185;DHT22;28803;52.308;19.096;2023-04-06T04:19:49;-2.70;1.00
43185;DHT22;28803;52.308;19.096;2023-04-06T04:22:16;-2.50;1.00
43185;DHT22;28803;52.308;19.096;2023-04-06T04:24:43;-2.40;1.00
43185;DHT22;28803;52.308;19.096;2023-04-06T04:27:10;-2.20;1.00
43185;DHT22;28803;52.308;19.096;2023-04-06T04:29:37;-2.20;1.00
43185;DHT22;28803;52.308;19.096;2023-04-06T04:32:05;-2.10;1.00
43185;DHT22;28803;52.308;19.096;2023-04-06T04:34:32;-2.00;1.00
43185;DHT22;28803;52.308;19.096;2023-04-06T04:37:00;-1.90;1.00
43185;DHT22;28803;52.308;19.096;2023-04-06T04:39:27;-1.80;1.00
43185;DHT22;28803;52.308;19.096;2023-04-06T04:41:54;-1.80;1.00
43185;DHT22;28803;52.308;19.096;2023-04-06T04:44:22;-1.50;1.00
43185;DHT22;28803;52.308;19.096;2023-04-06T04:46:49;-1.50;1.00
43185;DHT22;28803;52.308;19.096;2023-04-06T04:49:16;-1.60;1.00
43185;DHT22;28803;52.308;19.096;2023-04-06T04:51:43;-1.40;1.00
43185;DHT22;28803;52.308;19.096;2023-04-06T04:54:11;-1.40;1.00
43185;DHT22;28803;52.308;19.096;2023-04-06T04:56:38;-1.20;99.90
43185;DHT22;28803;52.308;19.096;2023-04-06T04:59:05;-1.20;99.90
43185;DHT22;28803;52.308;19.096;2023-04-06T05:01:33;-1.10;99.90
43185;DHT22;28803;52.308;19.096;2023-04-06T05:04:19;-1.10;99.90
43185;DHT22;28803;52.308;19.096;2023-04-06T05:06:47;-0.90;99.90
43185;DHT22;28803;52.308;19.096;2023-04-06T05:09:14;-0.70;99.90
43185;DHT22;28803;52.308;19.096;2023-04-06T05:11:42;-0.80;47.10
43185;DHT22;28803;52.308;19.096;2023-04-06T05:14:12;-0.80;42.10
43185;DHT22;28803;52.308;19.096;2023-04-06T05:16:39;-0.60;1.00
43185;DHT22;28803;52.308;19.096;2023-04-06T05:19:06;-0.60;1.00
43185;DHT22;28803;52.308;19.096;2023-04-06T05:21:34;-0.50;99.90
43185;DHT22;28803;52.308;19.096;2023-04-06T05:24:01;-0.50;99.90
43185;DHT22;28803;52.308;19.096;2023-04-06T05:26:29;-0.50;99.90
43185;DHT22;28803;52.308;19.096;2023-04-06T05:28:57;-0.40;99.90
43185;DHT22;28803;52.308;19.096;2023-04-06T05:31:24;-0.30;93.80
43185;DHT22;28803;52.308;19.096;2023-04-06T05:33:51;-0.30;99.90
43185;DHT22;28803;52.308;19.096;2023-04-06T05:36:19;-0.20;99.90
43185;DHT22;28803;52.308;19.096;2023-04-06T05:38:46;-0.20;70.20
43185;DHT22;28803;52.308;19.096;2023-04-06T05:41:14;-0.10;99.90
43185;DHT22;28803;52.308;19.096;2023-04-06T05:43:41;0.00;71.30
43185;DHT22;28803;52.308;19.096;2023-04-06T05:46:08;0.10;1.00
43185;DHT22;28803;52.308;19.096;2023-04-06T05:48:35;0.20;99.90
43185;DHT22;28803;52.308;19.096;2023-04-06T05:51:03;0.20;99.90
43185;DHT22;28803;52.308;19.096;2023-04-06T05:53:32;0.30;1.00
43185;DHT22;28803;52.308;19.096;2023-04-06T05:56:03;0.40;1.00
43185;DHT22;28803;52.308;19.096;2023-04-06T05:58:31;0.40;99.90
43185;DHT22;28803;52.308;19.096;2023-04-06T06:01:01;0.40;99.90
43185;DHT22;28803;52.308;19.096;2023-04-06T06:03:29;0.40;99.90
43185;DHT22;28803;52.308;19.096;2023-04-06T06:06:01;0.50;99.90
43185;DHT22;28803;52.308;19.096;2023-04-06T06:08:31;0.50;99.90
43185;DHT22;28803;52.308;19.096;2023-04-06T06:10:58;0.60;99.90
43185;DHT22;28803;52.308;19.096;2023-04-06T06:13:25;0.80;99.90
43185;DHT22;28803;52.308;19.096;2023-04-06T06:15:53;0.70;1.00
43185;DHT22;28803;52.308;19.096;2023-04-06T06:18:20;1.00;1.00
43185;DHT22;28803;52.308;19.096;2023-04-06T06:20:47;0.90;99.90
43185;DHT22;28803;52.308;19.096;2023-04-06T06:23:14;1.00;99.90
43185;DHT22;28803;52.308;19.096;2023-04-06T06:25:42;1.00;1.00
43185;DHT22;28803;52.308;19.096;2023-04-06T06:28:09;1.00;1.00
43185;DHT22;28803;52.308;19.096;2023-04-06T06:30:36;1.10;1.00
43185;DHT22;28803;52.308;19.096;2023-04-06T06:33:03;1.10;1.00
43185;DHT22;28803;52.308;19.096;2023-04-06T06:35:31;1.10;1.00
43185;DHT22;28803;52.308;19.096;2023-04-06T06:37:58;1.20;99.90
43185;DHT22;28803;52.308;19.096;2023-04-06T06:40:25;1.30;99.90
43185;DHT22;28803;52.308;19.096;2023-04-06T06:42:54;1.30;99.90
43185;DHT22;28803;52.308;19.096;2023-04-06T06:45:21;1.40;1.00
43185;DHT22;28803;52.308;19.096;2023-04-06T06:47:49;1.50;99.90
43185;DHT22;28803;52.308;19.096;2023-04-06T06:50:18;1.50;1.00
43185;DHT22;28803;52.308;19.096;2023-04-06T06:52:45;1.50;60.10
43185;DHT22;28803;52.308;19.096;2023-04-06T06:55:13;1.60;1.00
43185;DHT22;28803;52.308;19.096;2023-04-06T06:57:40;1.60;99.90
43185;DHT22;28803;52.308;19.096;2023-04-06T07:00:10;1.70;99.90
43185;DHT22;28803;52.308;19.096;2023-04-06T07:02:39;1.70;99.90
43185;DHT22;28803;52.308;19.096;2023-04-06T07:05:08;1.70;99.90
43185;DHT22;28803;52.308;19.096;2023-04-06T07:07:52;1.60;99.90
43185;DHT22;28803;52.308;19.096;2023-04-06T07:10:19;1.70;99.90
43185;DHT22;28803;52.308;19.096;2023-04-06T07:12:47;1.80;99.90
43185;DHT22;28803;52.308;19.096;2023-04-06T07:15:16;1.90;99.90
43185;DHT22;28803;52.308;19.096;2023-04-06T07:17:44;1.90;99.90
43185;DHT22;28803;52.308;19.096;2023-04-06T07:20:14;2.10;99.90
43185;DHT22;28803;52.308;19.096;2023-04-06T07:22:43;2.20;99.90
43185;DHT22;28803;52.308;19.096;2023-04-06T07:25:15;2.30;99.90
43185;DHT22;28803;52.308;19.096;2023-04-06T07:27:42;2.30;88.20
43185;DHT22;28803;52.308;19.096;2023-04-06T07:30:10;2.40;1.00
43185;DHT22;28803;52.308;19.096;2023-04-06T07:32:37;2.50;1.00
43185;DHT22;28803;52.308;19.096;2023-04-06T07:35:06;2.50;2.00
43185;DHT22;28803;52.308;19.096;2023-04-06T07:37:33;2.60;1.00
43185;DHT22;28803;52.308;19.096;2023-04-06T07:40:00;2.60;1.00
43185;DHT22;28803;52.308;19.096;2023-04-06T07:42:27;2.70;1.00
43185;DHT22;28803;52.308;19.096;2023-04-06T07:44:55;2.90;7.30
43185;DHT22;28803;52.308;19.096;2023-04-06T07:47:23;2.90;99.90
43185;DHT22;28803;52.308;19.096;2023-04-06T07:49:50;3.00;1.00
43185;DHT22;28803;52.308;19.096;2023-04-06T07:52:17;3.10;99.90
43185;DHT22;28803;52.308;19.096;2023-04-06T07:54:45;3.20;1.00
43185;DHT22;28803;52.308;19.096;2023-04-06T07:57:12;3.40;99.90
43185;DHT22;28803;52.308;19.096;2023-04-06T07:59:39;3.40;99.90
43185;DHT22;28803;52.308;19.096;2023-04-06T08:02:07;3.40;1.00
43185;DHT22;28803;52.308;19.096;2023-04-06T08:04:35;3.50;20.80
43185;DHT22;28803;52.308;19.096;2023-04-06T08:07:02;3.70;93.10
43185;DHT22;28803;52.308;19.096;2023-04-06T08:09:30;3.90;13.70
43185;DHT22;28803;52.308;19.096;2023-04-06T08:11:58;4.10;1.00
43185;DHT22;28803;52.308;19.096;2023-04-06T08:14:26;4.20;1.00
43185;DHT22;28803;52.308;19.096;2023-04-06T08:16:53;4.60;1.00
43185;DHT22;28803;52.308;19.096;2023-04-06T08:19:21;4.90;99.90
43185;DHT22;28803;52.308;19.096;2023-04-06T08:25:36;5.10;99.90
43185;DHT22;28803;52.308;19.096;2023-04-06T08:28:04;5.20;99.90
43185;DHT22;28803;52.308;19.096;2023-04-06T08:30:31;5.60;99.90
43185;DHT22;28803;52.308;19.096;2023-04-06T08:32:58;5.80;42.00
43185;DHT22;28803;52.308;19.096;2023-04-06T08:35:27;5.90;67.50
43185;DHT22;28803;52.308;19.096;2023-04-06T08:37:55;6.10;99.90
43185;DHT22;28803;52.308;19.096;2023-04-06T08:40:22;6.20;63.90
43185;DHT22;28803;52.308;19.096;2023-04-06T08:42:54;6.20;99.90
43185;DHT22;28803;52.308;19.096;2023-04-06T08:45:22;6.40;99.90
43185;DHT22;28803;52.308;19.096;2023-04-06T08:47:51;6.40;1.00
43185;DHT22;28803;52.308;19.096;2023-04-06T08:50:21;7.10;1.00
43185;DHT22;28803;52.308;19.096;2023-04-06T08:52:49;7.80;1.00
43185;DHT22;28803;52.308;19.096;2023-04-06T08:55:16;8.20;45.80
43185;DHT22;28803;52.308;19.096;2023-04-06T08:57:45;9.60;59.10
43185;DHT22;28803;52.308;19.096;2023-04-06T09:00:14;10.10;99.90
43185;DHT22;28803;52.308;19.096;2023-04-06T09:02:43;9.90;99.90
43185;DHT22;28803;52.308;19.096;2023-04-06T09:05:12;9.80;99.90
43185;DHT22;28803;52.308;19.096;2023-04-06T09:07:40;11.00;99.90
43185;DHT22;28803;52.308;19.096;2023-04-06T09:10:08;12.40;99.90
43185;DHT22;28803;52.308;19.096;2023-04-06T09:12:35;12.30;99.90
43185;DHT22;28803;52.308;19.096;2023-04-06T09:15:03;10.70;97.60
43185;DHT22;28803;52.308;19.096;2023-04-06T09:17:32;9.70;98.30
43185;DHT22;28803;52.308;19.096;2023-04-06T09:20:01;8.30;97.00
43185;DHT22;28803;52.308;19.096;2023-04-06T09:22:40;7.00;98.50
43185;DHT22;28803;52.308;19.096;2023-04-06T09:25:08;6.30;99.90
43185;DHT22;28803;52.308;19.096;2023-04-06T09:27:37;5.90;99.90
43185;DHT22;28803;52.308;19.096;2023-04-06T09:30:09;5.40;99.90
43185;DHT22;28803;52.308;19.096;2023-04-06T09:32:45;4.90;99.90
43185;DHT22;28803;52.308;19.096;2023-04-06T09:35:14;4.80;99.90
43185;DHT22;28803;52.308;19.096;2023-04-06T09:37:43;4.80;99.90
43185;DHT22;28803;52.308;19.096;2023-04-06T09:40:11;4.90;99.90
43185;DHT22;28803;52.308;19.096;2023-04-06T09:42:41;5.00;99.90
43185;DHT22;28803;52.308;19.096;2023-04-06T09:45:08;5.20;99.90
43185;DHT22;28803;52.308;19.096;2023-04-06T09:47:37;5.30;99.90
43185;DHT22;28803;52.308;19.096;2023-04-06T09:50:05;5.40;99.90
43185;DHT22;28803;52.308;19.096;2023-04-06T09:52:48;5.70;99.90
43185;DHT22;28803;52.308;19.096;2023-04-06T09:55:35;5.90;99.90
43185;DHT22;28803;52.308;19.096;2023-04-06T09:58:05;5.80;99.90
43185;DHT22;28803;52.308;19.096;2023-04-06T10:01:03;5.60;99.90
43185;DHT22;28803;52.308;19.096;2023-04-06T10:06:26;5.90;99.90
43185;DHT22;28803;52.308;19.096;2023-04-06T10:08:59;6.00;99.90
43185;DHT22;28803;52.308;19.096;2023-04-06T10:11:28;6.00;99.90
43185;DHT22;28803;52.308;19.096;2023-04-06T10:13:56;5.90;99.90
43185;DHT22;28803;52.308;19.096;2023-04-06T10:16:23;5.70;99.90
43185;DHT22;28803;52.308;19.096;2023-04-06T10:18:56;5.60;99.90
43185;DHT22;28803;52.308;19.096;2023-04-06T10:21:26;5.60;99.90
43185;DHT22;28803;52.308;19.096;2023-04-06T10:23:59;5.70;99.90
43185;DHT22;28803;52.308;19.096;2023-04-06T10:26:27;5.90;99.90
43185;DHT22;28803;52.308;19.096;2023-04-06T10:29:04;5.90;99.90
43185;DHT22;28803;52.308;19.096;2023-04-06T10:31:32;5.80;99.90
43185;DHT22;28803;52.308;19.096;2023-04-06T10:34:01;5.80;99.90
43185;DHT22;28803;52.308;19.096;2023-04-06T10:36:32;5.60;99.90
43185;DHT22;28803;52.308;19.096;2023-04-06T10:39:03;5.30;99.90
43185;DHT22;28803;52.308;19.096;2023-04-06T10:41:45;5.30;99.90
43185;DHT22;28803;52.308;19.096;2023-04-06T10:44:21;5.40;99.90
43185;DHT22;28803;52.308;19.096;2023-04-06T10:46:56;6.40;99.90
43185;DHT22;28803;52.308;19.096;2023-04-06T10:49:25;6.40;99.90
43185;DHT22;28803;52.308;19.096;2023-04-06T10:51:55;6.60;99.90
43185;DHT22;28803;52.308;19.096;2023-04-06T10:54:24;6.40;99.90
43185;DHT22;28803;52.308;19.096;2023-04-06T10:56:52;6.10;99.90
43185;DHT22;28803;52.308;19.096;2023-04-06T10:59:21;6.20;99.90
43185;DHT22;28803;52.308;19.096;2023-04-06T11:01:49;6.20;99.90
43185;DHT22;28803;52.308;19.096;2023-04-06T11:04:18;6.20;99.90
43185;DHT22;28803;52.308;19.096;2023-04-06T11:06:49;6.10;99.90
43185;DHT22;28803;52.308;19.096;2023-04-06T11:11:52;6.30;99.90
43185;DHT22;28803;52.308;19.096;2023-04-06T11:14:19;6.30;99.90
43185;DHT22;28803;52.308;19.096;2023-04-06T11:16:47;6.00;99.90
43185;DHT22;28803;52.308;19.096;2023-04-06T11:19:18;6.00;99.90
43185;DHT22;28803;52.308;19.096;2023-04-06T11:21:47;6.30;99.90
43185;DHT22;28803;52.308;19.096;2023-04-06T11:24:22;6.20;99.90
43185;DHT22;28803;52.308;19.096;2023-04-06T11:29:20;5.70;99.90
43185;DHT22;28803;52.308;19.096;2023-04-06T11:31:50;5.90;99.90
43185;DHT22;28803;52.308;19.096;2023-04-06T11:34:21;6.00;99.90
43185;DHT22;28803;52.308;19.096;2023-04-06T11:36:54;6.30;99.90
43185;DHT22;28803;52.308;19.096;2023-04-06T11:39:27;6.30;99.90
43185;DHT22;28803;52.308;19.096;2023-04-06T11:41:59;6.50;99.90
43185;DHT22;28803;52.308;19.096;2023-04-06T11:47:11;6.30;99.90
43185;DHT22;28803;52.308;19.096;2023-04-06T11:49:41;6.20;99.90
43185;DHT22;28803;52.308;19.096;2023-04-06T11:52:35;6.20;99.90
43185;DHT22;28803;52.308;19.096;2023-04-06T11:55:17;6.20;99.90
43185;DHT22;28803;52.308;19.096;2023-04-06T11:57:44;6.10;99.90
43185;DHT22;28803;52.308;19.096;2023-04-06T12:00:12;5.90;99.90
43185;DHT22;28803;52.308;19.096;2023-04-06T12:02:40;5.90;99.90
43185;DHT22;28803;52.308;19.096;2023-04-06T12:05:12;6.00;99.90
43185;DHT22;28803;52.308;19.096;2023-04-06T12:07:40;5.90;99.90
43185;DHT22;28803;52.308;19.096;2023-04-06T12:10:08;5.80;99.90
43185;DHT22;28803;52.308;19.096;2023-04-06T12:12:35;5.50;99.90
43185;DHT22;28803;52.308;19.096;2023-04-06T12:15:03;5.30;99.90
43185;DHT22;28803;52.308;19.096;2023-04-06T12:17:30;5.30;99.90
43185;DHT22;28803;52.308;19.096;2023-04-06T12:19:57;5.40;99.90
43185;DHT22;28803;52.308;19.096;2023-04-06T12:22:35;5.40;99.90
43185;DHT22;28803;52.308;19.096;2023-04-06T12:25:04;5.30;1.00
43185;DHT22;28803;52.308;19.096;2023-04-06T12:27:31;5.20;99.90
43185;DHT22;28803;52.308;19.096;2023-04-06T12:29:58;4.90;1.00
43185;DHT22;28803;52.308;19.096;2023-04-06T12:32:25;4.80;1.00
43185;DHT22;28803;52.308;19.096;2023-04-06T12:34:53;4.70;1.00
43185;DHT22;28803;52.308;19.096;2023-04-06T12:37:20;4.70;1.00
43185;DHT22;28803;52.308;19.096;2023-04-06T12:39:48;4.70;1.00
43185;DHT22;28803;52.308;19.096;2023-04-06T12:42:15;4.80;1.00
43185;DHT22;28803;52.308;19.096;2023-04-06T12:44:43;4.70;1.00
43185;DHT22;28803;52.308;19.096;2023-04-06T12:47:10;4.80;69.70
43185;DHT22;28803;52.308;19.096;2023-04-06T12:49:38;4.70;64.60
43185;DHT22;28803;52.308;19.096;2023-04-06T12:52:05;4.70;99.90
43185;DHT22;28803;52.308;19.096;2023-04-06T12:54:33;4.80;98.80
43185;DHT22;28803;52.308;19.096;2023-04-06T12:57:00;4.70;73.70
43185;DHT22;28803;52.308;19.096;2023-04-06T12:59:28;4.60;95.00
43185;DHT22;28803;52.308;19.096;2023-04-06T13:02:01;4.50;51.50
43185;DHT22;28803;52.308;19.096;2023-04-06T13:04:29;4.40;99.90
43185;DHT22;28803;52.308;19.096;2023-04-06T13:06:59;4.40;99.90
43185;DHT22;28803;52.308;19.096;2023-04-06T13:09:26;4.40;99.90
43185;DHT22;28803;52.308;19.096;2023-04-06T13:11:53;4.40;99.90
43185;DHT22;28803;52.308;19.096;2023-04-06T13:14:21;4.40;99.90
43185;DHT22;28803;52.308;19.096;2023-04-06T13:16:49;4.40;1.00
43185;DHT22;28803;52.308;19.096;2023-04-06T13:19:17;4.40;1.00
43185;DHT22;28803;52.308;19.096;2023-04-06T13:21:45;4.30;1.50
43185;DHT22;28803;52.308;19.096;2023-04-06T13:24:12;4.30;2.90
43185;DHT22;28803;52.308;19.096;2023-04-06T13:26:42;3.90;99.90
43185;DHT22;28803;52.308;19.096;2023-04-06T13:29:09;3.90;99.90
43185;DHT22;28803;52.308;19.096;2023-04-06T13:31:37;3.70;3.10
43185;DHT22;28803;52.308;19.096;2023-04-06T13:34:05;3.60;33.00
43185;DHT22;28803;52.308;19.096;2023-04-06T13:36:33;3.60;1.00
43185;DHT22;28803;52.308;19.096;2023-04-06T13:39:00;3.60;1.00
43185;DHT22;28803;52.308;19.096;2023-04-06T13:41:27;3.70;1.00
43185;DHT22;28803;52.308;19.096;2023-04-06T13:43:55;3.70;1.00
43185;DHT22;28803;52.308;19.096;2023-04-06T13:46:22;3.70;1.00
43185;DHT22;28803;52.308;19.096;2023-04-06T13:48:51;3.60;1.00
43185;DHT22;28803;52.308;19.096;2023-04-06T13:51:18;3.60;1.00
43185;DHT22;28803;52.308;19.096;2023-04-06T13:53:46;3.50;1.00
43185;DHT22;28803;52.308;19.096;2023-04-06T13:56:13;3.50;1.00
43185;DHT22;28803;52.308;19.096;2023-04-06T13:58:40;3.50;99.90
43185;DHT22;28803;52.308;19.096;2023-04-06T14:01:08;3.50;1.00
43185;DHT22;28803;52.308;19.096;2023-04-06T14:03:38;3.70;1.00
43185;DHT22;28803;52.308;19.096;2023-04-06T14:06:13;3.80;1.00
43185;DHT22;28803;52.308;19.096;2023-04-06T14:08:43;3.70;1.00
43185;DHT22;28803;52.308;19.096;2023-04-06T14:11:12;3.80;8.80
43185;DHT22;28803;52.308;19.096;2023-04-06T14:13:40;3.70;99.90
43185;DHT22;28803;52.308;19.096;2023-04-06T14:16:07;3.60;1.00
43185;DHT22;28803;52.308;19.096;2023-04-06T14:18:36;3.40;1.00
43185;DHT22;28803;52.308;19.096;2023-04-06T14:21:04;3.30;52.40
43185;DHT22;28803;52.308;19.096;2023-04-06T14:23:31;3.10;99.90
43185;DHT22;28803;52.308;19.096;2023-04-06T14:26:07;3.00;1.00
43185;DHT22;28803;52.308;19.096;2023-04-06T14:28:37;2.90;1.00
43185;DHT22;28803;52.308;19.096;2023-04-06T14:31:13;2.80;99.90
43185;DHT22;28803;52.308;19.096;2023-04-06T14:33:42;3.20;99.90
43185;DHT22;28803;52.308;19.096;2023-04-06T14:36:10;2.70;1.00
43185;DHT22;28803;52.308;19.096;2023-04-06T14:38:38;2.80;94.60
43185;DHT22;28803;52.308;19.096;2023-04-06T14:41:07;2.70;99.90
43185;DHT22;28803;52.308;19.096;2023-04-06T14:43:34;2.70;99.90
43185;DHT22;28803;52.308;19.096;2023-04-06T14:46:02;2.70;99.90
43185;DHT22;28803;52.308;19.096;2023-04-06T14:48:29;2.80;99.90
43185;DHT22;28803;52.308;19.096;2023-04-06T14:50:57;2.90;99.90
43185;DHT22;28803;52.308;19.096;2023-04-06T14:53:25;2.60;99.90
43185;DHT22;28803;52.308;19.096;2023-04-06T14:55:53;2.60;99.90
43185;DHT22;28803;52.308;19.096;2023-04-06T14:58:21;2.60;99.90
43185;DHT22;28803;52.308;19.096;2023-04-06T15:00:49;2.60;99.90
43185;DHT22;28803;52.308;19.096;2023-04-06T15:03:22;2.60;99.90
43185;DHT22;28803;52.308;19.096;2023-04-06T15:05:52;2.60;1.00
43185;DHT22;28803;52.308;19.096;2023-04-06T15:08:21;2.60;1.00
43185;DHT22;28803;52.308;19.096;2023-04-06T15:10:50;2.50;1.00
43185;DHT22;28803;52.308;19.096;2023-04-06T15:13:18;2.40;1.00
43185;DHT22;28803;52.308;19.096;2023-04-06T15:15:45;2.40;1.00
43185;DHT22;28803;52.308;19.096;2023-04-06T15:18:12;2.40;1.00
43185;DHT22;28803;52.308;19.096;2023-04-06T15:20:40;2.50;1.00
43185;DHT22;28803;52.308;19.096;2023-04-06T15:23:08;2.40;1.00
43185;DHT22;28803;52.308;19.096;2023-04-06T15:25:35;2.30;1.00
43185;DHT22;28803;52.308;19.096;2023-04-06T15:28:02;2.30;1.00
43185;DHT22;28803;52.308;19.096;2023-04-06T15:30:29;2.30;1.00
43185;DHT22;28803;52.308;19.096;2023-04-06T15:33:01;2.30;1.00
43185;DHT22;28803;52.308;19.096;2023-04-06T15:35:29;2.30;1.00
43185;DHT22;28803;52.308;19.096;2023-04-06T15:37:57;2.40;1.00
43185;DHT22;28803;52.308;19.096;2023-04-06T15:40:24;2.50;1.00
43185;DHT22;28803;52.308;19.096;2023-04-06T15:42:52;2.60;1.00
43185;DHT22;28803;52.308;19.096;2023-04-06T15:45:19;2.60;1.00
43185;DHT22;28803;52.308;19.096;2023-04-06T15:47:46;2.60;1.00
43185;DHT22;28803;52.308;19.096;2023-04-06T15:50:13;2.50;1.00
43185;DHT22;28803;52.308;19.096;2023-04-06T15:52:41;2.50;1.00
43185;DHT22;28803;52.308;19.096;2023-04-06T15:55:08;2.50;1.00